Orbital elements of COSMOS 397 DEB
| Launched | 24 February 1971 |
| Flight ended | – |
| Launch site | Tyuratam Missile and Space Center, Kazakhstan (Also known as Baikonur Cosmodrome) |
| Owner | Commonwealth of Independent States (former USSR) |
| NORAD ID | 13776 |
| Date fetched |
Epoch osculation |
Inc. [°] |
Ecc. | RA asc node [hr] |
Arg Peri. [°] |
Mean anom [°] |
Mean motion [rev/day] |
Abs. mag |
| Date fetched |
Epoch osculation |
Inc. [°] |
Ecc. | RA asc node [hr] |
Arg Peri. [°] |
Mean anom [°] |
Mean motion [rev/day] |
Abs. mag |
| 2026 May 05 17:57 | 2026 May 04 11:10:43 | 65.8575 | 0.04737 | 14.6577 | 92.6615 | 349.8257 | 13.68005 | – |
| 2026 May 04 17:57 | 2026 Apr 30 14:18:08 | 65.8574 | 0.04739 | 15.2897 | 94.6066 | 349.8257 | 13.68005 | – |
| 2026 May 03 17:57 | 2026 Apr 30 14:18:08 | 65.8574 | 0.04739 | 15.2897 | 94.6066 | 349.8257 | 13.68005 | – |
| 2026 May 02 17:57 | 2026 Apr 30 14:18:08 | 65.8574 | 0.04739 | 15.2897 | 94.6066 | 349.8257 | 13.68005 | – |
| 2026 May 01 17:56 | 2026 Apr 30 14:18:08 | 65.8574 | 0.04739 | 15.2897 | 94.6066 | 349.8257 | 13.68005 | – |
| 2026 Apr 30 17:56 | 2026 Apr 30 14:18:08 | 65.8574 | 0.04739 | 15.2897 | 94.6066 | 349.8257 | 13.68005 | – |
| 2026 Apr 29 17:57 | 2026 Apr 24 10:42:37 | 65.8571 | 0.04743 | 16.2940 | 97.6950 | 349.8257 | 13.68005 | – |
| 2026 Apr 28 17:56 | 2026 Apr 24 10:42:37 | 65.8571 | 0.04743 | 16.2940 | 97.6950 | 349.8257 | 13.68005 | – |
| 2026 Apr 27 17:58 | 2026 Apr 24 10:42:37 | 65.8571 | 0.04743 | 16.2940 | 97.6950 | 349.8257 | 13.68005 | – |
| 2026 Apr 26 17:58 | 2026 Apr 24 10:42:37 | 65.8571 | 0.04743 | 16.2940 | 97.6950 | 349.8257 | 13.68005 | – |
| 2026 Apr 25 17:58 | 2026 Apr 24 10:42:37 | 65.8571 | 0.04743 | 16.2940 | 97.6950 | 349.8257 | 13.68005 | – |
| 2026 Apr 24 17:59 | 2026 Apr 24 10:42:37 | 65.8571 | 0.04743 | 16.2940 | 97.6950 | 349.8257 | 13.68005 | – |
| 2026 Apr 23 17:57 | 2026 Apr 17 10:08:03 | 65.8567 | 0.04747 | 17.4412 | 101.2136 | 349.8257 | 13.68005 | – |
| 2026 Apr 22 17:57 | 2026 Apr 17 10:08:03 | 65.8567 | 0.04747 | 17.4412 | 101.2136 | 349.8257 | 13.68005 | – |
| 2026 Apr 21 17:57 | 2026 Apr 17 10:08:03 | 65.8567 | 0.04747 | 17.4412 | 101.2136 | 349.8257 | 13.68005 | – |
| 2026 Apr 20 17:57 | 2026 Apr 17 10:08:03 | 65.8567 | 0.04747 | 17.4412 | 101.2136 | 349.8257 | 13.68005 | – |
| 2026 Apr 19 17:58 | 2026 Apr 17 10:08:03 | 65.8567 | 0.04747 | 17.4412 | 101.2136 | 349.8257 | 13.68005 | – |
| 2026 Apr 18 17:56 | 2026 Apr 12 19:57:40 | 65.8564 | 0.04749 | 18.1909 | 103.5154 | 349.8257 | 13.68005 | – |
| 2026 Apr 16 17:57 | 2026 Apr 12 19:57:40 | 65.8564 | 0.04749 | 18.1909 | 103.5154 | 349.8257 | 13.68005 | – |
| 2026 Apr 14 17:57 | 2026 Apr 12 19:57:40 | 65.8564 | 0.04749 | 18.1909 | 103.5154 | 349.8257 | 13.68005 | – |
| 2026 Apr 13 17:57 | 2026 Apr 12 19:57:40 | 65.8564 | 0.04749 | 18.1909 | 103.5154 | 349.8257 | 13.68005 | – |
| 2026 Apr 12 17:57 | 2026 Apr 08 13:59:26 | 65.8570 | 0.04750 | 18.8848 | 105.6366 | 349.8257 | 13.68005 | – |
| 2026 Apr 11 17:57 | 2026 Apr 08 13:59:26 | 65.8570 | 0.04750 | 18.8848 | 105.6366 | 349.8257 | 13.68005 | – |
| 2026 Apr 10 17:58 | 2026 Apr 08 13:59:26 | 65.8570 | 0.04750 | 18.8848 | 105.6366 | 349.8257 | 13.68005 | – |
| 2026 Apr 09 18:01 | 2026 Apr 08 13:59:26 | 65.8570 | 0.04750 | 18.8848 | 105.6366 | 349.8257 | 13.68005 | – |
| 2026 Apr 08 17:57 | 2026 Apr 08 13:59:26 | 65.8570 | 0.04750 | 18.8848 | 105.6366 | 349.8257 | 13.68005 | – |